sensor_id;sensor_type;location;lat;lon;timestamp;temperature;humidity
70456;DHT22;57916;51.996;5.180;2024-02-16T00:02:03;15.40;72.70
70456;DHT22;57916;51.996;5.180;2024-02-16T00:04:31;15.40;72.70
70456;DHT22;57916;51.996;5.180;2024-02-16T00:06:58;15.40;72.60
70456;DHT22;57916;51.996;5.180;2024-02-16T00:09:25;15.40;72.70
70456;DHT22;57916;51.996;5.180;2024-02-16T00:11:54;15.40;72.70
70456;DHT22;57916;51.996;5.180;2024-02-16T00:14:21;15.40;72.70
70456;DHT22;57916;51.996;5.180;2024-02-16T00:16:58;15.30;72.70
70456;DHT22;57916;51.996;5.180;2024-02-16T00:19:31;15.30;72.70
70456;DHT22;57916;51.996;5.180;2024-02-16T00:21:58;15.20;72.80
70456;DHT22;57916;51.996;5.180;2024-02-16T00:24:26;15.20;72.90
70456;DHT22;57916;51.996;5.180;2024-02-16T00:26:53;15.30;73.00
70456;DHT22;57916;51.996;5.180;2024-02-16T00:29:20;15.20;72.90
70456;DHT22;57916;51.996;5.180;2024-02-16T00:31:47;15.20;73.00
70456;DHT22;57916;51.996;5.180;2024-02-16T00:34:14;15.20;73.00
70456;DHT22;57916;51.996;5.180;2024-02-16T00:36:41;15.20;73.10
70456;DHT22;57916;51.996;5.180;2024-02-16T00:39:08;15.20;73.10
70456;DHT22;57916;51.996;5.180;2024-02-16T00:41:35;15.20;73.20
70456;DHT22;57916;51.996;5.180;2024-02-16T00:44:03;15.20;73.10
70456;DHT22;57916;51.996;5.180;2024-02-16T00:46:30;15.20;73.00
70456;DHT22;57916;51.996;5.180;2024-02-16T00:48:58;15.20;73.00
70456;DHT22;57916;51.996;5.180;2024-02-16T00:51:25;15.20;72.90
70456;DHT22;57916;51.996;5.180;2024-02-16T00:53:55;15.20;72.90
70456;DHT22;57916;51.996;5.180;2024-02-16T00:56:23;15.20;72.90
70456;DHT22;57916;51.996;5.180;2024-02-16T00:58:50;15.20;72.90
70456;DHT22;57916;51.996;5.180;2024-02-16T01:01:17;15.20;72.80
70456;DHT22;57916;51.996;5.180;2024-02-16T01:03:44;15.10;72.70
70456;DHT22;57916;51.996;5.180;2024-02-16T01:06:11;15.10;72.70
70456;DHT22;57916;51.996;5.180;2024-02-16T01:08:38;15.10;72.70
70456;DHT22;57916;51.996;5.180;2024-02-16T01:11:06;15.10;72.70
70456;DHT22;57916;51.996;5.180;2024-02-16T01:13:34;15.20;72.70
70456;DHT22;57916;51.996;5.180;2024-02-16T01:16:02;15.10;72.70
70456;DHT22;57916;51.996;5.180;2024-02-16T01:18:29;15.10;72.70
70456;DHT22;57916;51.996;5.180;2024-02-16T01:20:57;15.10;72.70
70456;DHT22;57916;51.996;5.180;2024-02-16T01:23:24;15.10;72.70
70456;DHT22;57916;51.996;5.180;2024-02-16T01:25:51;15.10;72.60
70456;DHT22;57916;51.996;5.180;2024-02-16T01:28:18;15.10;72.50
70456;DHT22;57916;51.996;5.180;2024-02-16T01:30:45;15.10;72.50
70456;DHT22;57916;51.996;5.180;2024-02-16T01:33:12;15.10;72.50
70456;DHT22;57916;51.996;5.180;2024-02-16T01:35:39;15.10;72.50
70456;DHT22;57916;51.996;5.180;2024-02-16T01:38:06;15.10;72.60
70456;DHT22;57916;51.996;5.180;2024-02-16T01:40:33;15.00;73.40
70456;DHT22;57916;51.996;5.180;2024-02-16T01:43:01;15.00;72.70
70456;DHT22;57916;51.996;5.180;2024-02-16T01:45:28;15.00;72.70
70456;DHT22;57916;51.996;5.180;2024-02-16T01:47:55;15.00;72.80
70456;DHT22;57916;51.996;5.180;2024-02-16T01:50:23;14.90;72.90
70456;DHT22;57916;51.996;5.180;2024-02-16T01:52:51;14.90;73.00
70456;DHT22;57916;51.996;5.180;2024-02-16T01:55:20;14.90;73.00
70456;DHT22;57916;51.996;5.180;2024-02-16T01:57:48;14.80;73.10
70456;DHT22;57916;51.996;5.180;2024-02-16T02:00:16;14.80;73.30
70456;DHT22;57916;51.996;5.180;2024-02-16T02:02:45;14.80;73.40
70456;DHT22;57916;51.996;5.180;2024-02-16T02:05:13;14.80;73.50
70456;DHT22;57916;51.996;5.180;2024-02-16T02:07:42;14.70;73.60
70456;DHT22;57916;51.996;5.180;2024-02-16T02:10:10;14.70;73.70
70456;DHT22;57916;51.996;5.180;2024-02-16T02:12:42;14.80;73.80
70456;DHT22;57916;51.996;5.180;2024-02-16T02:15:09;14.80;73.80
70456;DHT22;57916;51.996;5.180;2024-02-16T02:17:37;14.80;73.90
70456;DHT22;57916;51.996;5.180;2024-02-16T02:20:06;14.80;73.80
70456;DHT22;57916;51.996;5.180;2024-02-16T02:22:38;14.80;73.70
70456;DHT22;57916;51.996;5.180;2024-02-16T02:25:06;14.90;73.70
70456;DHT22;57916;51.996;5.180;2024-02-16T02:27:33;14.90;73.70
70456;DHT22;57916;51.996;5.180;2024-02-16T02:30:00;14.90;73.60
70456;DHT22;57916;51.996;5.180;2024-02-16T02:32:27;14.90;74.40
70456;DHT22;57916;51.996;5.180;2024-02-16T02:34:56;14.90;73.40
70456;DHT22;57916;51.996;5.180;2024-02-16T02:37:23;14.90;73.40
70456;DHT22;57916;51.996;5.180;2024-02-16T02:39:50;14.90;73.30
70456;DHT22;57916;51.996;5.180;2024-02-16T02:42:17;14.80;73.40
70456;DHT22;57916;51.996;5.180;2024-02-16T02:44:44;14.80;73.50
70456;DHT22;57916;51.996;5.180;2024-02-16T02:47:17;14.80;73.70
70456;DHT22;57916;51.996;5.180;2024-02-16T02:49:44;14.80;73.70
70456;DHT22;57916;51.996;5.180;2024-02-16T02:52:11;14.80;73.70
70456;DHT22;57916;51.996;5.180;2024-02-16T02:54:38;14.80;73.60
70456;DHT22;57916;51.996;5.180;2024-02-16T02:57:06;14.80;73.60
70456;DHT22;57916;51.996;5.180;2024-02-16T02:59:33;14.80;73.60
70456;DHT22;57916;51.996;5.180;2024-02-16T03:01:59;14.70;73.60
70456;DHT22;57916;51.996;5.180;2024-02-16T03:04:27;14.70;73.70
70456;DHT22;57916;51.996;5.180;2024-02-16T03:06:54;14.70;73.70
70456;DHT22;57916;51.996;5.180;2024-02-16T03:09:21;14.70;73.70
70456;DHT22;57916;51.996;5.180;2024-02-16T03:11:49;14.60;73.70
70456;DHT22;57916;51.996;5.180;2024-02-16T03:14:17;14.60;73.70
70456;DHT22;57916;51.996;5.180;2024-02-16T03:16:44;14.60;73.70
70456;DHT22;57916;51.996;5.180;2024-02-16T03:19:11;14.60;73.70
70456;DHT22;57916;51.996;5.180;2024-02-16T03:21:39;14.60;73.70
70456;DHT22;57916;51.996;5.180;2024-02-16T03:24:06;14.50;73.60
70456;DHT22;57916;51.996;5.180;2024-02-16T03:26:33;14.50;73.50
70456;DHT22;57916;51.996;5.180;2024-02-16T03:29:01;14.50;73.50
70456;DHT22;57916;51.996;5.180;2024-02-16T03:31:28;14.50;73.60
70456;DHT22;57916;51.996;5.180;2024-02-16T03:33:56;14.50;73.60
70456;DHT22;57916;51.996;5.180;2024-02-16T03:36:24;14.50;73.50
70456;DHT22;57916;51.996;5.180;2024-02-16T03:38:51;14.50;73.40
70456;DHT22;57916;51.996;5.180;2024-02-16T03:41:20;14.50;73.30
70456;DHT22;57916;51.996;5.180;2024-02-16T03:43:48;14.50;73.30
70456;DHT22;57916;51.996;5.180;2024-02-16T03:46:15;14.50;73.40
70456;DHT22;57916;51.996;5.180;2024-02-16T03:48:42;14.50;73.30
70456;DHT22;57916;51.996;5.180;2024-02-16T03:51:10;14.60;73.20
70456;DHT22;57916;51.996;5.180;2024-02-16T03:53:37;14.60;72.90
70456;DHT22;57916;51.996;5.180;2024-02-16T03:56:04;14.70;72.60
70456;DHT22;57916;51.996;5.180;2024-02-16T03:58:32;14.70;72.40
70456;DHT22;57916;51.996;5.180;2024-02-16T04:01:02;14.70;72.30
70456;DHT22;57916;51.996;5.180;2024-02-16T04:03:29;14.70;72.40
70456;DHT22;57916;51.996;5.180;2024-02-16T04:05:56;14.70;72.60
70456;DHT22;57916;51.996;5.180;2024-02-16T04:08:26;14.60;72.80
70456;DHT22;57916;51.996;5.180;2024-02-16T04:10:53;14.60;73.00
70456;DHT22;57916;51.996;5.180;2024-02-16T04:13:20;14.50;74.10
70456;DHT22;57916;51.996;5.180;2024-02-16T04:15:47;14.50;73.40
70456;DHT22;57916;51.996;5.180;2024-02-16T04:18:20;14.50;73.60
70456;DHT22;57916;51.996;5.180;2024-02-16T04:20:47;14.50;73.80
70456;DHT22;57916;51.996;5.180;2024-02-16T04:23:14;14.50;73.80
70456;DHT22;57916;51.996;5.180;2024-02-16T04:25:41;14.50;73.80
70456;DHT22;57916;51.996;5.180;2024-02-16T04:28:08;14.50;73.90
70456;DHT22;57916;51.996;5.180;2024-02-16T04:30:36;14.40;74.00
70456;DHT22;57916;51.996;5.180;2024-02-16T04:33:03;14.40;74.10
70456;DHT22;57916;51.996;5.180;2024-02-16T04:35:31;14.40;74.00
70456;DHT22;57916;51.996;5.180;2024-02-16T04:37:58;14.40;74.10
70456;DHT22;57916;51.996;5.180;2024-02-16T04:40:25;14.40;74.10
70456;DHT22;57916;51.996;5.180;2024-02-16T04:42:53;14.40;74.20
70456;DHT22;57916;51.996;5.180;2024-02-16T04:45:20;14.40;74.30
70456;DHT22;57916;51.996;5.180;2024-02-16T04:47:47;14.40;74.30
70456;DHT22;57916;51.996;5.180;2024-02-16T04:50:15;14.40;74.30
70456;DHT22;57916;51.996;5.180;2024-02-16T04:52:42;14.40;74.30
70456;DHT22;57916;51.996;5.180;2024-02-16T04:55:10;14.50;74.30
70456;DHT22;57916;51.996;5.180;2024-02-16T04:57:37;14.40;74.20
70456;DHT22;57916;51.996;5.180;2024-02-16T05:00:05;14.40;74.20
70456;DHT22;57916;51.996;5.180;2024-02-16T05:02:32;14.40;74.10
70456;DHT22;57916;51.996;5.180;2024-02-16T05:04:59;14.40;74.10
70456;DHT22;57916;51.996;5.180;2024-02-16T05:07:30;14.40;74.10
70456;DHT22;57916;51.996;5.180;2024-02-16T05:09:58;14.40;74.10
70456;DHT22;57916;51.996;5.180;2024-02-16T05:12:26;14.40;74.00
70456;DHT22;57916;51.996;5.180;2024-02-16T05:14:53;14.50;74.10
70456;DHT22;57916;51.996;5.180;2024-02-16T05:17:21;14.50;74.10
70456;DHT22;57916;51.996;5.180;2024-02-16T05:19:49;14.50;74.10
70456;DHT22;57916;51.996;5.180;2024-02-16T05:22:16;14.60;74.00
70456;DHT22;57916;51.996;5.180;2024-02-16T05:24:48;14.60;73.90
70456;DHT22;57916;51.996;5.180;2024-02-16T05:27:15;14.60;74.00
70456;DHT22;57916;51.996;5.180;2024-02-16T05:29:43;14.60;74.10
70456;DHT22;57916;51.996;5.180;2024-02-16T05:32:11;14.60;74.00
70456;DHT22;57916;51.996;5.180;2024-02-16T05:34:39;14.70;74.00
70456;DHT22;57916;51.996;5.180;2024-02-16T05:37:06;14.70;73.90
70456;DHT22;57916;51.996;5.180;2024-02-16T05:39:36;14.70;74.00
70456;DHT22;57916;51.996;5.180;2024-02-16T05:42:20;14.60;74.10
70456;DHT22;57916;51.996;5.180;2024-02-16T05:44:50;14.60;74.20
70456;DHT22;57916;51.996;5.180;2024-02-16T05:47:18;14.60;74.40
70456;DHT22;57916;51.996;5.180;2024-02-16T05:49:46;14.60;74.50
70456;DHT22;57916;51.996;5.180;2024-02-16T05:52:13;14.50;74.60
70456;DHT22;57916;51.996;5.180;2024-02-16T05:54:47;14.50;74.60
70456;DHT22;57916;51.996;5.180;2024-02-16T05:57:16;14.50;74.60
70456;DHT22;57916;51.996;5.180;2024-02-16T05:59:43;14.60;74.70
70456;DHT22;57916;51.996;5.180;2024-02-16T06:02:12;14.60;74.70
70456;DHT22;57916;51.996;5.180;2024-02-16T06:04:39;14.60;74.70
70456;DHT22;57916;51.996;5.180;2024-02-16T06:07:07;14.60;74.70
70456;DHT22;57916;51.996;5.180;2024-02-16T06:09:35;14.70;74.70
70456;DHT22;57916;51.996;5.180;2024-02-16T06:12:04;14.60;74.60
70456;DHT22;57916;51.996;5.180;2024-02-16T06:14:34;14.70;74.60
70456;DHT22;57916;51.996;5.180;2024-02-16T06:17:01;14.70;74.70
70456;DHT22;57916;51.996;5.180;2024-02-16T06:19:28;14.70;74.70
70456;DHT22;57916;51.996;5.180;2024-02-16T06:21:55;14.80;74.80
70456;DHT22;57916;51.996;5.180;2024-02-16T06:24:23;14.70;74.80
70456;DHT22;57916;51.996;5.180;2024-02-16T06:26:50;14.70;74.90
70456;DHT22;57916;51.996;5.180;2024-02-16T06:29:23;14.70;75.10
70456;DHT22;57916;51.996;5.180;2024-02-16T06:31:50;14.80;75.20
70456;DHT22;57916;51.996;5.180;2024-02-16T06:34:19;14.80;75.30
70456;DHT22;57916;51.996;5.180;2024-02-16T06:36:46;14.70;75.50
70456;DHT22;57916;51.996;5.180;2024-02-16T06:39:15;14.80;75.50
70456;DHT22;57916;51.996;5.180;2024-02-16T06:41:44;14.70;75.60
70456;DHT22;57916;51.996;5.180;2024-02-16T06:44:13;14.80;75.80
70456;DHT22;57916;51.996;5.180;2024-02-16T06:46:40;14.70;75.90
70456;DHT22;57916;51.996;5.180;2024-02-16T06:49:07;14.80;76.00
70456;DHT22;57916;51.996;5.180;2024-02-16T06:51:36;14.80;76.00
70456;DHT22;57916;51.996;5.180;2024-02-16T06:54:04;14.80;76.00
70456;DHT22;57916;51.996;5.180;2024-02-16T06:56:31;14.80;76.00
70456;DHT22;57916;51.996;5.180;2024-02-16T06:58:59;14.80;76.10
70456;DHT22;57916;51.996;5.180;2024-02-16T07:01:26;14.80;76.10
70456;DHT22;57916;51.996;5.180;2024-02-16T07:03:54;14.90;76.20
70456;DHT22;57916;51.996;5.180;2024-02-16T07:06:21;14.90;76.30
70456;DHT22;57916;51.996;5.180;2024-02-16T07:08:50;14.90;76.30
70456;DHT22;57916;51.996;5.180;2024-02-16T07:11:17;14.90;76.40
70456;DHT22;57916;51.996;5.180;2024-02-16T07:13:45;14.90;76.40
70456;DHT22;57916;51.996;5.180;2024-02-16T07:16:13;15.00;76.50
70456;DHT22;57916;51.996;5.180;2024-02-16T07:18:40;15.00;76.50
70456;DHT22;57916;51.996;5.180;2024-02-16T07:21:09;15.00;76.50
70456;DHT22;57916;51.996;5.180;2024-02-16T07:23:37;15.10;76.40
70456;DHT22;57916;51.996;5.180;2024-02-16T07:26:05;15.10;76.50
70456;DHT22;57916;51.996;5.180;2024-02-16T07:28:33;15.10;76.50
70456;DHT22;57916;51.996;5.180;2024-02-16T07:31:01;15.10;76.50
70456;DHT22;57916;51.996;5.180;2024-02-16T07:33:28;15.10;76.50
70456;DHT22;57916;51.996;5.180;2024-02-16T07:35:56;15.20;76.60
70456;DHT22;57916;51.996;5.180;2024-02-16T07:38:23;15.20;76.50
70456;DHT22;57916;51.996;5.180;2024-02-16T07:40:50;15.20;76.60
70456;DHT22;57916;51.996;5.180;2024-02-16T07:43:17;15.20;76.60
70456;DHT22;57916;51.996;5.180;2024-02-16T07:45:45;15.20;76.50
70456;DHT22;57916;51.996;5.180;2024-02-16T07:48:13;15.20;76.50
70456;DHT22;57916;51.996;5.180;2024-02-16T07:50:41;15.30;76.60
70456;DHT22;57916;51.996;5.180;2024-02-16T07:53:08;15.30;76.60
70456;DHT22;57916;51.996;5.180;2024-02-16T07:55:37;15.30;76.60
70456;DHT22;57916;51.996;5.180;2024-02-16T07:58:04;15.30;76.60
70456;DHT22;57916;51.996;5.180;2024-02-16T08:00:31;15.40;76.60
70456;DHT22;57916;51.996;5.180;2024-02-16T08:02:58;15.40;76.70
70456;DHT22;57916;51.996;5.180;2024-02-16T08:05:26;15.40;76.60
70456;DHT22;57916;51.996;5.180;2024-02-16T08:07:54;15.40;76.70
70456;DHT22;57916;51.996;5.180;2024-02-16T08:10:22;15.50;76.90
70456;DHT22;57916;51.996;5.180;2024-02-16T08:12:50;15.50;76.80
70456;DHT22;57916;51.996;5.180;2024-02-16T08:15:17;15.50;76.90
70456;DHT22;57916;51.996;5.180;2024-02-16T08:17:50;15.50;77.00
70456;DHT22;57916;51.996;5.180;2024-02-16T08:20:18;15.60;77.10
70456;DHT22;57916;51.996;5.180;2024-02-16T08:22:45;15.60;77.10
70456;DHT22;57916;51.996;5.180;2024-02-16T08:25:13;15.60;77.10
70456;DHT22;57916;51.996;5.180;2024-02-16T08:27:40;15.70;77.10
70456;DHT22;57916;51.996;5.180;2024-02-16T08:30:08;15.70;77.00
70456;DHT22;57916;51.996;5.180;2024-02-16T08:32:39;15.70;76.90
70456;DHT22;57916;51.996;5.180;2024-02-16T08:35:06;15.80;77.00
70456;DHT22;57916;51.996;5.180;2024-02-16T08:37:34;15.90;77.90
70456;DHT22;57916;51.996;5.180;2024-02-16T08:40:01;15.90;77.00
70456;DHT22;57916;51.996;5.180;2024-02-16T08:42:28;15.90;77.70
70456;DHT22;57916;51.996;5.180;2024-02-16T08:44:55;16.00;76.90
70456;DHT22;57916;51.996;5.180;2024-02-16T08:47:22;16.00;76.80
70456;DHT22;57916;51.996;5.180;2024-02-16T08:49:49;16.10;76.90
70456;DHT22;57916;51.996;5.180;2024-02-16T08:52:17;16.10;76.90
70456;DHT22;57916;51.996;5.180;2024-02-16T08:54:44;16.10;76.90
70456;DHT22;57916;51.996;5.180;2024-02-16T08:57:11;16.20;77.00
70456;DHT22;57916;51.996;5.180;2024-02-16T08:59:38;16.20;76.70
70456;DHT22;57916;51.996;5.180;2024-02-16T09:02:06;16.30;76.50
70456;DHT22;57916;51.996;5.180;2024-02-16T09:04:33;16.30;76.60
70456;DHT22;57916;51.996;5.180;2024-02-16T09:07:00;16.30;76.60
70456;DHT22;57916;51.996;5.180;2024-02-16T09:09:28;16.30;76.80
70456;DHT22;57916;51.996;5.180;2024-02-16T09:11:55;16.30;76.90
70456;DHT22;57916;51.996;5.180;2024-02-16T09:14:22;16.30;77.20
70456;DHT22;57916;51.996;5.180;2024-02-16T09:16:50;16.30;77.60
70456;DHT22;57916;51.996;5.180;2024-02-16T09:19:19;16.20;77.90
70456;DHT22;57916;51.996;5.180;2024-02-16T09:21:48;16.20;78.40
70456;DHT22;57916;51.996;5.180;2024-02-16T09:24:16;16.20;78.80
70456;DHT22;57916;51.996;5.180;2024-02-16T09:26:45;16.10;79.10
70456;DHT22;57916;51.996;5.180;2024-02-16T09:29:15;16.10;79.40
70456;DHT22;57916;51.996;5.180;2024-02-16T09:31:42;16.10;79.80
70456;DHT22;57916;51.996;5.180;2024-02-16T09:34:09;16.10;80.00
70456;DHT22;57916;51.996;5.180;2024-02-16T09:36:36;16.10;80.30
70456;DHT22;57916;51.996;5.180;2024-02-16T09:39:04;16.10;80.60
70456;DHT22;57916;51.996;5.180;2024-02-16T09:41:34;16.10;80.90
70456;DHT22;57916;51.996;5.180;2024-02-16T09:44:04;16.20;80.80
70456;DHT22;57916;51.996;5.180;2024-02-16T09:46:31;16.20;80.80
70456;DHT22;57916;51.996;5.180;2024-02-16T09:49:04;16.20;80.60
70456;DHT22;57916;51.996;5.180;2024-02-16T09:51:32;16.20;80.40
70456;DHT22;57916;51.996;5.180;2024-02-16T09:54:03;16.20;80.40
70456;DHT22;57916;51.996;5.180;2024-02-16T09:56:30;16.20;80.40
70456;DHT22;57916;51.996;5.180;2024-02-16T09:58:57;16.20;80.40
70456;DHT22;57916;51.996;5.180;2024-02-16T10:01:25;16.20;80.70
70456;DHT22;57916;51.996;5.180;2024-02-16T10:03:52;16.20;81.10
70456;DHT22;57916;51.996;5.180;2024-02-16T10:06:19;16.20;81.40
70456;DHT22;57916;51.996;5.180;2024-02-16T10:08:54;16.20;81.60
70456;DHT22;57916;51.996;5.180;2024-02-16T10:11:25;16.20;81.70
70456;DHT22;57916;51.996;5.180;2024-02-16T10:13:58;16.20;81.70
70456;DHT22;57916;51.996;5.180;2024-02-16T10:16:26;16.20;81.80
70456;DHT22;57916;51.996;5.180;2024-02-16T10:18:56;16.20;81.70
70456;DHT22;57916;51.996;5.180;2024-02-16T10:21:27;16.20;81.70
70456;DHT22;57916;51.996;5.180;2024-02-16T10:24:21;16.20;81.80
70456;DHT22;57916;51.996;5.180;2024-02-16T10:26:48;16.20;81.60
70456;DHT22;57916;51.996;5.180;2024-02-16T10:29:18;16.20;81.70
70456;DHT22;57916;51.996;5.180;2024-02-16T10:31:49;16.20;81.70
70456;DHT22;57916;51.996;5.180;2024-02-16T10:34:17;16.20;81.80
70456;DHT22;57916;51.996;5.180;2024-02-16T10:36:46;16.20;81.80
70456;DHT22;57916;51.996;5.180;2024-02-16T10:39:13;16.10;81.70
70456;DHT22;57916;51.996;5.180;2024-02-16T10:41:42;16.10;81.90
70456;DHT22;57916;51.996;5.180;2024-02-16T10:44:09;16.10;82.20
70456;DHT22;57916;51.996;5.180;2024-02-16T10:46:37;16.00;82.30
70456;DHT22;57916;51.996;5.180;2024-02-16T10:49:04;16.00;82.50
70456;DHT22;57916;51.996;5.180;2024-02-16T10:51:40;15.90;82.70
70456;DHT22;57916;51.996;5.180;2024-02-16T10:54:10;15.90;82.90
70456;DHT22;57916;51.996;5.180;2024-02-16T10:56:40;15.90;83.20
70456;DHT22;57916;51.996;5.180;2024-02-16T10:59:09;15.90;83.20
70456;DHT22;57916;51.996;5.180;2024-02-16T11:01:41;15.90;83.30
70456;DHT22;57916;51.996;5.180;2024-02-16T11:04:13;15.90;83.50
70456;DHT22;57916;51.996;5.180;2024-02-16T11:06:54;15.90;83.80
70456;DHT22;57916;51.996;5.180;2024-02-16T11:09:26;15.90;84.00
70456;DHT22;57916;51.996;5.180;2024-02-16T11:11:55;15.90;84.10
70456;DHT22;57916;51.996;5.180;2024-02-16T11:17:12;15.90;84.00
70456;DHT22;57916;51.996;5.180;2024-02-16T11:19:44;15.90;83.90
70456;DHT22;57916;51.996;5.180;2024-02-16T11:22:18;15.90;83.90
70456;DHT22;57916;51.996;5.180;2024-02-16T11:24:48;15.90;83.90
70456;DHT22;57916;51.996;5.180;2024-02-16T11:27:16;15.90;83.90
70456;DHT22;57916;51.996;5.180;2024-02-16T11:29:47;15.90;83.80
70456;DHT22;57916;51.996;5.180;2024-02-16T11:32:15;15.90;83.80
70456;DHT22;57916;51.996;5.180;2024-02-16T11:34:42;15.90;83.90
70456;DHT22;57916;51.996;5.180;2024-02-16T11:37:13;15.90;83.90
70456;DHT22;57916;51.996;5.180;2024-02-16T11:39:41;15.90;83.70
70456;DHT22;57916;51.996;5.180;2024-02-16T11:42:13;16.00;83.60
70456;DHT22;57916;51.996;5.180;2024-02-16T11:44:53;16.00;83.60
70456;DHT22;57916;51.996;5.180;2024-02-16T11:47:23;16.00;83.60
70456;DHT22;57916;51.996;5.180;2024-02-16T11:50:03;16.00;83.50
70456;DHT22;57916;51.996;5.180;2024-02-16T11:52:31;16.00;83.40
70456;DHT22;57916;51.996;5.180;2024-02-16T11:54:58;16.00;83.40
70456;DHT22;57916;51.996;5.180;2024-02-16T11:57:32;16.00;83.30
70456;DHT22;57916;51.996;5.180;2024-02-16T12:00:00;16.00;83.20
70456;DHT22;57916;51.996;5.180;2024-02-16T12:02:31;15.90;83.50
70456;DHT22;57916;51.996;5.180;2024-02-16T12:05:01;15.90;83.50
70456;DHT22;57916;51.996;5.180;2024-02-16T12:07:30;15.80;83.70
70456;DHT22;57916;51.996;5.180;2024-02-16T12:10:00;15.80;84.00
70456;DHT22;57916;51.996;5.180;2024-02-16T12:12:27;15.80;84.20
70456;DHT22;57916;51.996;5.180;2024-02-16T12:14:55;15.80;84.10
70456;DHT22;57916;51.996;5.180;2024-02-16T12:17:23;15.80;84.10
70456;DHT22;57916;51.996;5.180;2024-02-16T12:19:52;15.80;84.30
70456;DHT22;57916;51.996;5.180;2024-02-16T12:22:22;15.70;84.40
70456;DHT22;57916;51.996;5.180;2024-02-16T12:24:51;15.70;85.00
70456;DHT22;57916;51.996;5.180;2024-02-16T12:27:18;15.70;85.30
70456;DHT22;57916;51.996;5.180;2024-02-16T12:29:45;15.70;85.70
70456;DHT22;57916;51.996;5.180;2024-02-16T12:32:13;15.70;85.90
70456;DHT22;57916;51.996;5.180;2024-02-16T12:34:45;15.70;85.80
70456;DHT22;57916;51.996;5.180;2024-02-16T12:37:13;15.70;85.80
70456;DHT22;57916;51.996;5.180;2024-02-16T12:39:40;15.70;85.80
70456;DHT22;57916;51.996;5.180;2024-02-16T12:42:08;15.70;85.70
70456;DHT22;57916;51.996;5.180;2024-02-16T12:44:35;15.70;85.70
70456;DHT22;57916;51.996;5.180;2024-02-16T12:47:02;15.70;85.80
70456;DHT22;57916;51.996;5.180;2024-02-16T12:49:29;15.70;85.80
70456;DHT22;57916;51.996;5.180;2024-02-16T12:51:57;15.70;86.10
70456;DHT22;57916;51.996;5.180;2024-02-16T12:54:24;15.80;86.50
70456;DHT22;57916;51.996;5.180;2024-02-16T12:56:52;15.80;86.40
70456;DHT22;57916;51.996;5.180;2024-02-16T12:59:20;15.80;86.50
70456;DHT22;57916;51.996;5.180;2024-02-16T13:01:47;15.90;86.60
70456;DHT22;57916;51.996;5.180;2024-02-16T13:04:14;16.00;86.60
70456;DHT22;57916;51.996;5.180;2024-02-16T13:06:49;16.00;86.30
70456;DHT22;57916;51.996;5.180;2024-02-16T13:09:17;16.00;86.20
70456;DHT22;57916;51.996;5.180;2024-02-16T13:11:44;16.10;86.30
70456;DHT22;57916;51.996;5.180;2024-02-16T13:14:11;16.10;86.00
70456;DHT22;57916;51.996;5.180;2024-02-16T13:16:38;16.20;86.00
70456;DHT22;57916;51.996;5.180;2024-02-16T13:19:05;16.30;85.90
70456;DHT22;57916;51.996;5.180;2024-02-16T13:21:32;16.30;85.30
70456;DHT22;57916;51.996;5.180;2024-02-16T13:24:00;16.30;84.90
70456;DHT22;57916;51.996;5.180;2024-02-16T13:26:27;16.40;84.80
70456;DHT22;57916;51.996;5.180;2024-02-16T13:28:55;16.40;84.50
70456;DHT22;57916;51.996;5.180;2024-02-16T13:31:22;16.40;84.00
70456;DHT22;57916;51.996;5.180;2024-02-16T13:33:52;16.50;83.70
70456;DHT22;57916;51.996;5.180;2024-02-16T13:36:20;16.50;83.40
70456;DHT22;57916;51.996;5.180;2024-02-16T13:38:47;16.50;83.60
70456;DHT22;57916;51.996;5.180;2024-02-16T13:41:14;16.50;83.20
70456;DHT22;57916;51.996;5.180;2024-02-16T13:43:46;16.40;82.80
70456;DHT22;57916;51.996;5.180;2024-02-16T13:46:14;16.40;82.50
70456;DHT22;57916;51.996;5.180;2024-02-16T13:48:42;16.30;82.40
70456;DHT22;57916;51.996;5.180;2024-02-16T13:51:09;16.20;82.10
70456;DHT22;57916;51.996;5.180;2024-02-16T13:53:37;16.10;82.30
70456;DHT22;57916;51.996;5.180;2024-02-16T13:56:05;16.10;82.70
70456;DHT22;57916;51.996;5.180;2024-02-16T13:58:33;16.10;83.00
70456;DHT22;57916;51.996;5.180;2024-02-16T14:01:02;16.00;83.00
70456;DHT22;57916;51.996;5.180;2024-02-16T14:03:33;16.00;83.10
70456;DHT22;57916;51.996;5.180;2024-02-16T14:06:00;16.00;83.10
70456;DHT22;57916;51.996;5.180;2024-02-16T14:08:28;16.00;83.00
70456;DHT22;57916;51.996;5.180;2024-02-16T14:10:55;16.00;82.70
70456;DHT22;57916;51.996;5.180;2024-02-16T14:13:22;16.00;82.70
70456;DHT22;57916;51.996;5.180;2024-02-16T14:15:51;16.00;82.70
70456;DHT22;57916;51.996;5.180;2024-02-16T14:18:19;16.00;82.90
70456;DHT22;57916;51.996;5.180;2024-02-16T14:21:00;16.00;82.70
70456;DHT22;57916;51.996;5.180;2024-02-16T14:23:29;16.00;82.80
70456;DHT22;57916;51.996;5.180;2024-02-16T14:25:57;16.00;82.70
70456;DHT22;57916;51.996;5.180;2024-02-16T14:28:24;16.10;82.60
70456;DHT22;57916;51.996;5.180;2024-02-16T14:30:51;16.10;82.70
70456;DHT22;57916;51.996;5.180;2024-02-16T14:33:18;16.10;82.70
70456;DHT22;57916;51.996;5.180;2024-02-16T14:35:59;16.20;82.60
70456;DHT22;57916;51.996;5.180;2024-02-16T14:38:26;16.20;82.60
70456;DHT22;57916;51.996;5.180;2024-02-16T14:40:54;16.20;82.30
70456;DHT22;57916;51.996;5.180;2024-02-16T14:43:21;16.30;82.30
70456;DHT22;57916;51.996;5.180;2024-02-16T14:45:49;16.30;82.10
70456;DHT22;57916;51.996;5.180;2024-02-16T14:48:16;16.30;81.90
70456;DHT22;57916;51.996;5.180;2024-02-16T14:50:43;16.40;81.90
70456;DHT22;57916;51.996;5.180;2024-02-16T14:53:12;16.40;81.90
70456;DHT22;57916;51.996;5.180;2024-02-16T14:55:39;16.40;81.90
70456;DHT22;57916;51.996;5.180;2024-02-16T14:58:06;16.50;81.70
70456;DHT22;57916;51.996;5.180;2024-02-16T15:00:33;16.50;81.60
70456;DHT22;57916;51.996;5.180;2024-02-16T15:03:03;16.60;81.40
70456;DHT22;57916;51.996;5.180;2024-02-16T15:05:30;16.60;81.10
70456;DHT22;57916;51.996;5.180;2024-02-16T15:07:57;16.50;81.00
70456;DHT22;57916;51.996;5.180;2024-02-16T15:10:24;16.50;81.10
70456;DHT22;57916;51.996;5.180;2024-02-16T15:12:51;16.60;80.80
70456;DHT22;57916;51.996;5.180;2024-02-16T15:15:18;16.50;80.50
70456;DHT22;57916;51.996;5.180;2024-02-16T15:17:46;16.50;80.20
70456;DHT22;57916;51.996;5.180;2024-02-16T15:20:15;16.50;80.00
70456;DHT22;57916;51.996;5.180;2024-02-16T15:22:42;16.50;79.90
70456;DHT22;57916;51.996;5.180;2024-02-16T15:25:20;16.40;80.00
70456;DHT22;57916;51.996;5.180;2024-02-16T15:27:48;16.40;80.10
70456;DHT22;57916;51.996;5.180;2024-02-16T15:30:17;16.50;80.60
70456;DHT22;57916;51.996;5.180;2024-02-16T15:32:47;16.50;80.70
70456;DHT22;57916;51.996;5.180;2024-02-16T15:35:19;16.50;80.80
70456;DHT22;57916;51.996;5.180;2024-02-16T15:37:46;16.60;80.70
70456;DHT22;57916;51.996;5.180;2024-02-16T15:40:13;16.60;80.50